sensor_id;sensor_type;location;lat;lon;timestamp;temperature;humidity
51908;DHT22;39320;53.214;6.556;2023-09-19T00:00:38;16.70;99.90
51908;DHT22;39320;53.214;6.556;2023-09-19T00:03:07;16.50;99.90
51908;DHT22;39320;53.214;6.556;2023-09-19T00:05:37;16.40;99.90
51908;DHT22;39320;53.214;6.556;2023-09-19T00:08:08;16.40;99.90
51908;DHT22;39320;53.214;6.556;2023-09-19T00:10:35;16.40;99.90
51908;DHT22;39320;53.214;6.556;2023-09-19T00:13:03;16.40;99.90
51908;DHT22;39320;53.214;6.556;2023-09-19T00:15:39;16.40;99.90
51908;DHT22;39320;53.214;6.556;2023-09-19T00:18:06;16.40;99.90
51908;DHT22;39320;53.214;6.556;2023-09-19T00:20:32;16.40;99.90
51908;DHT22;39320;53.214;6.556;2023-09-19T00:23:00;16.40;99.90
51908;DHT22;39320;53.214;6.556;2023-09-19T00:25:34;16.40;99.90
51908;DHT22;39320;53.214;6.556;2023-09-19T00:28:06;16.40;99.90
51908;DHT22;39320;53.214;6.556;2023-09-19T00:30:33;16.50;99.90
51908;DHT22;39320;53.214;6.556;2023-09-19T00:32:59;16.50;99.90
51908;DHT22;39320;53.214;6.556;2023-09-19T00:35:26;16.40;99.90
51908;DHT22;39320;53.214;6.556;2023-09-19T00:37:53;16.30;99.90
51908;DHT22;39320;53.214;6.556;2023-09-19T00:40:19;16.20;99.90
51908;DHT22;39320;53.214;6.556;2023-09-19T00:42:47;16.20;99.90
51908;DHT22;39320;53.214;6.556;2023-09-19T00:45:15;16.20;99.90
51908;DHT22;39320;53.214;6.556;2023-09-19T00:47:48;16.20;99.90
51908;DHT22;39320;53.214;6.556;2023-09-19T00:50:19;16.10;99.90
51908;DHT22;39320;53.214;6.556;2023-09-19T00:52:48;16.20;99.90
51908;DHT22;39320;53.214;6.556;2023-09-19T00:55:16;16.10;99.90
51908;DHT22;39320;53.214;6.556;2023-09-19T00:57:42;16.10;99.90
51908;DHT22;39320;53.214;6.556;2023-09-19T01:00:10;16.00;99.90
51908;DHT22;39320;53.214;6.556;2023-09-19T01:02:44;16.00;99.90
51908;DHT22;39320;53.214;6.556;2023-09-19T01:05:11;15.80;99.90
51908;DHT22;39320;53.214;6.556;2023-09-19T01:07:38;15.80;99.90
51908;DHT22;39320;53.214;6.556;2023-09-19T01:10:11;15.80;99.90
51908;DHT22;39320;53.214;6.556;2023-09-19T01:17:56;15.80;99.90
51908;DHT22;39320;53.214;6.556;2023-09-19T01:26:10;15.80;99.90
51908;DHT22;39320;53.214;6.556;2023-09-19T01:29:17;15.80;99.90
51908;DHT22;39320;53.214;6.556;2023-09-19T01:31:57;15.80;99.90
51908;DHT22;39320;53.214;6.556;2023-09-19T01:34:26;15.70;99.90
51908;DHT22;39320;53.214;6.556;2023-09-19T01:36:52;15.70;99.90
51908;DHT22;39320;53.214;6.556;2023-09-19T01:39:18;15.70;99.90
51908;DHT22;39320;53.214;6.556;2023-09-19T01:44:17;15.70;99.90
51908;DHT22;39320;53.214;6.556;2023-09-19T01:46:47;15.70;99.90
51908;DHT22;39320;53.214;6.556;2023-09-19T01:49:33;15.60;99.90
51908;DHT22;39320;53.214;6.556;2023-09-19T01:52:10;15.60;99.90
51908;DHT22;39320;53.214;6.556;2023-09-19T01:54:57;15.60;99.90
51908;DHT22;39320;53.214;6.556;2023-09-19T01:57:29;15.60;99.90
51908;DHT22;39320;53.214;6.556;2023-09-19T02:00:18;15.50;99.90
51908;DHT22;39320;53.214;6.556;2023-09-19T02:02:47;15.50;99.90
51908;DHT22;39320;53.214;6.556;2023-09-19T02:05:22;15.50;99.90
51908;DHT22;39320;53.214;6.556;2023-09-19T02:07:54;15.60;99.90
51908;DHT22;39320;53.214;6.556;2023-09-19T02:10:21;15.60;99.90
51908;DHT22;39320;53.214;6.556;2023-09-19T02:12:48;15.60;99.90
51908;DHT22;39320;53.214;6.556;2023-09-19T02:15:14;15.60;99.90
51908;DHT22;39320;53.214;6.556;2023-09-19T02:17:42;15.60;99.90
51908;DHT22;39320;53.214;6.556;2023-09-19T02:20:10;15.70;99.90
51908;DHT22;39320;53.214;6.556;2023-09-19T02:22:36;15.60;99.90
51908;DHT22;39320;53.214;6.556;2023-09-19T02:25:02;15.70;99.90
51908;DHT22;39320;53.214;6.556;2023-09-19T02:27:30;15.60;99.90
51908;DHT22;39320;53.214;6.556;2023-09-19T02:29:56;15.60;99.90
51908;DHT22;39320;53.214;6.556;2023-09-19T02:32:23;15.60;99.90
51908;DHT22;39320;53.214;6.556;2023-09-19T02:34:49;15.40;99.90
51908;DHT22;39320;53.214;6.556;2023-09-19T02:37:17;15.40;99.90
51908;DHT22;39320;53.214;6.556;2023-09-19T02:39:44;15.30;99.90
51908;DHT22;39320;53.214;6.556;2023-09-19T02:42:10;15.30;99.90
51908;DHT22;39320;53.214;6.556;2023-09-19T02:44:35;15.30;99.90
51908;DHT22;39320;53.214;6.556;2023-09-19T02:47:02;15.30;99.90
51908;DHT22;39320;53.214;6.556;2023-09-19T02:49:28;15.30;99.90
51908;DHT22;39320;53.214;6.556;2023-09-19T02:51:53;15.20;99.90
51908;DHT22;39320;53.214;6.556;2023-09-19T02:54:19;15.20;99.90
51908;DHT22;39320;53.214;6.556;2023-09-19T02:56:45;15.30;99.90
51908;DHT22;39320;53.214;6.556;2023-09-19T02:59:12;15.20;99.90
51908;DHT22;39320;53.214;6.556;2023-09-19T03:01:38;15.10;99.90
51908;DHT22;39320;53.214;6.556;2023-09-19T03:04:04;15.10;99.90
51908;DHT22;39320;53.214;6.556;2023-09-19T03:06:31;15.00;99.90
51908;DHT22;39320;53.214;6.556;2023-09-19T03:08:58;15.10;99.90
51908;DHT22;39320;53.214;6.556;2023-09-19T03:11:25;15.10;99.90
51908;DHT22;39320;53.214;6.556;2023-09-19T03:13:55;15.00;99.90
51908;DHT22;39320;53.214;6.556;2023-09-19T03:16:21;15.00;99.90
51908;DHT22;39320;53.214;6.556;2023-09-19T03:18:50;15.10;99.90
51908;DHT22;39320;53.214;6.556;2023-09-19T03:21:17;15.10;99.90
51908;DHT22;39320;53.214;6.556;2023-09-19T03:23:43;15.20;99.90
51908;DHT22;39320;53.214;6.556;2023-09-19T03:26:13;15.10;99.90
51908;DHT22;39320;53.214;6.556;2023-09-19T03:28:41;15.10;99.90
51908;DHT22;39320;53.214;6.556;2023-09-19T03:31:08;15.10;99.90
51908;DHT22;39320;53.214;6.556;2023-09-19T03:33:34;15.20;99.90
51908;DHT22;39320;53.214;6.556;2023-09-19T03:36:02;15.20;99.90
51908;DHT22;39320;53.214;6.556;2023-09-19T03:38:30;15.20;99.90
51908;DHT22;39320;53.214;6.556;2023-09-19T03:40:56;15.20;99.90
51908;DHT22;39320;53.214;6.556;2023-09-19T03:43:22;15.20;99.90
51908;DHT22;39320;53.214;6.556;2023-09-19T03:45:47;15.20;99.90
51908;DHT22;39320;53.214;6.556;2023-09-19T03:48:14;15.10;99.90
51908;DHT22;39320;53.214;6.556;2023-09-19T03:50:40;15.20;99.90
51908;DHT22;39320;53.214;6.556;2023-09-19T03:53:05;15.20;99.90
51908;DHT22;39320;53.214;6.556;2023-09-19T03:55:34;15.20;99.90
51908;DHT22;39320;53.214;6.556;2023-09-19T03:58:06;15.10;99.90
51908;DHT22;39320;53.214;6.556;2023-09-19T04:00:32;15.10;99.90
51908;DHT22;39320;53.214;6.556;2023-09-19T04:02:59;15.10;99.90
51908;DHT22;39320;53.214;6.556;2023-09-19T04:05:27;15.10;99.90
51908;DHT22;39320;53.214;6.556;2023-09-19T04:07:53;15.10;99.90
51908;DHT22;39320;53.214;6.556;2023-09-19T04:10:19;15.20;99.90
51908;DHT22;39320;53.214;6.556;2023-09-19T04:12:52;15.10;99.90
51908;DHT22;39320;53.214;6.556;2023-09-19T04:15:19;15.10;99.90
51908;DHT22;39320;53.214;6.556;2023-09-19T04:17:44;15.10;99.90
51908;DHT22;39320;53.214;6.556;2023-09-19T04:20:10;15.10;99.90
51908;DHT22;39320;53.214;6.556;2023-09-19T04:22:38;15.10;99.90
51908;DHT22;39320;53.214;6.556;2023-09-19T04:25:05;15.10;99.90
51908;DHT22;39320;53.214;6.556;2023-09-19T04:27:34;15.00;99.90
51908;DHT22;39320;53.214;6.556;2023-09-19T04:30:00;15.10;99.90
51908;DHT22;39320;53.214;6.556;2023-09-19T04:32:29;15.10;99.90
51908;DHT22;39320;53.214;6.556;2023-09-19T04:34:55;15.10;99.90
51908;DHT22;39320;53.214;6.556;2023-09-19T04:37:25;15.10;99.90
51908;DHT22;39320;53.214;6.556;2023-09-19T04:39:51;15.10;99.90
51908;DHT22;39320;53.214;6.556;2023-09-19T04:42:17;15.10;99.90
51908;DHT22;39320;53.214;6.556;2023-09-19T04:44:43;15.20;99.90
51908;DHT22;39320;53.214;6.556;2023-09-19T04:47:08;15.10;99.90
51908;DHT22;39320;53.214;6.556;2023-09-19T04:49:34;15.10;99.90
51908;DHT22;39320;53.214;6.556;2023-09-19T04:52:00;15.10;99.90
51908;DHT22;39320;53.214;6.556;2023-09-19T04:54:26;15.10;99.90
51908;DHT22;39320;53.214;6.556;2023-09-19T04:56:52;15.10;99.90
51908;DHT22;39320;53.214;6.556;2023-09-19T04:59:18;15.10;99.90
51908;DHT22;39320;53.214;6.556;2023-09-19T05:01:44;15.10;99.90
51908;DHT22;39320;53.214;6.556;2023-09-19T05:04:09;15.10;99.90
51908;DHT22;39320;53.214;6.556;2023-09-19T05:06:35;15.10;99.90
51908;DHT22;39320;53.214;6.556;2023-09-19T05:09:01;15.10;99.90
51908;DHT22;39320;53.214;6.556;2023-09-19T05:11:28;15.10;99.90
51908;DHT22;39320;53.214;6.556;2023-09-19T05:13:55;15.10;99.90
51908;DHT22;39320;53.214;6.556;2023-09-19T05:16:21;15.10;99.90
51908;DHT22;39320;53.214;6.556;2023-09-19T05:18:47;15.10;99.90
51908;DHT22;39320;53.214;6.556;2023-09-19T05:21:13;15.10;99.90
51908;DHT22;39320;53.214;6.556;2023-09-19T05:23:39;15.10;99.90
51908;DHT22;39320;53.214;6.556;2023-09-19T05:26:04;15.10;99.90
51908;DHT22;39320;53.214;6.556;2023-09-19T05:28:30;15.10;99.90
51908;DHT22;39320;53.214;6.556;2023-09-19T05:31:00;15.10;99.90
51908;DHT22;39320;53.214;6.556;2023-09-19T05:33:27;15.10;99.90
51908;DHT22;39320;53.214;6.556;2023-09-19T05:35:53;15.00;99.90
51908;DHT22;39320;53.214;6.556;2023-09-19T05:38:19;15.00;99.90
51908;DHT22;39320;53.214;6.556;2023-09-19T05:40:46;15.00;99.90
51908;DHT22;39320;53.214;6.556;2023-09-19T05:43:13;15.10;99.90
51908;DHT22;39320;53.214;6.556;2023-09-19T05:45:40;15.10;99.90
51908;DHT22;39320;53.214;6.556;2023-09-19T05:48:13;15.10;99.90
51908;DHT22;39320;53.214;6.556;2023-09-19T05:50:39;15.00;99.90
51908;DHT22;39320;53.214;6.556;2023-09-19T05:53:05;15.00;99.90
51908;DHT22;39320;53.214;6.556;2023-09-19T05:55:32;15.00;99.90
51908;DHT22;39320;53.214;6.556;2023-09-19T05:57:58;15.00;99.90
51908;DHT22;39320;53.214;6.556;2023-09-19T06:00:25;15.00;99.90
51908;DHT22;39320;53.214;6.556;2023-09-19T06:02:56;15.10;99.90
51908;DHT22;39320;53.214;6.556;2023-09-19T06:05:26;15.00;99.90
51908;DHT22;39320;53.214;6.556;2023-09-19T06:07:52;15.00;99.90
51908;DHT22;39320;53.214;6.556;2023-09-19T06:10:18;15.00;99.90
51908;DHT22;39320;53.214;6.556;2023-09-19T06:12:46;15.00;99.90
51908;DHT22;39320;53.214;6.556;2023-09-19T06:15:15;15.00;99.90
51908;DHT22;39320;53.214;6.556;2023-09-19T06:17:51;15.00;99.90
51908;DHT22;39320;53.214;6.556;2023-09-19T06:20:21;15.00;99.90
51908;DHT22;39320;53.214;6.556;2023-09-19T06:22:48;15.00;99.90
51908;DHT22;39320;53.214;6.556;2023-09-19T06:25:16;15.00;99.90
51908;DHT22;39320;53.214;6.556;2023-09-19T06:27:49;15.00;99.90
51908;DHT22;39320;53.214;6.556;2023-09-19T06:30:18;15.10;99.90
51908;DHT22;39320;53.214;6.556;2023-09-19T06:32:44;15.10;99.90
51908;DHT22;39320;53.214;6.556;2023-09-19T06:35:11;15.10;99.90
51908;DHT22;39320;53.214;6.556;2023-09-19T06:37:37;15.10;99.90
51908;DHT22;39320;53.214;6.556;2023-09-19T06:40:13;15.10;99.90
51908;DHT22;39320;53.214;6.556;2023-09-19T06:42:45;15.20;99.90
51908;DHT22;39320;53.214;6.556;2023-09-19T06:45:12;15.20;99.90
51908;DHT22;39320;53.214;6.556;2023-09-19T06:47:39;15.20;99.90
51908;DHT22;39320;53.214;6.556;2023-09-19T06:50:05;15.20;99.90
51908;DHT22;39320;53.214;6.556;2023-09-19T06:52:37;15.30;99.90
51908;DHT22;39320;53.214;6.556;2023-09-19T06:55:03;15.30;99.90
51908;DHT22;39320;53.214;6.556;2023-09-19T06:57:31;15.40;99.90
51908;DHT22;39320;53.214;6.556;2023-09-19T06:59:57;15.40;99.90
51908;DHT22;39320;53.214;6.556;2023-09-19T07:02:23;15.40;99.90
51908;DHT22;39320;53.214;6.556;2023-09-19T07:04:49;15.40;99.90
51908;DHT22;39320;53.214;6.556;2023-09-19T07:07:15;15.40;99.90
51908;DHT22;39320;53.214;6.556;2023-09-19T07:09:42;15.50;99.90
51908;DHT22;39320;53.214;6.556;2023-09-19T07:12:07;15.50;99.90
51908;DHT22;39320;53.214;6.556;2023-09-19T07:14:33;15.40;99.90
51908;DHT22;39320;53.214;6.556;2023-09-19T07:16:59;15.50;99.90
51908;DHT22;39320;53.214;6.556;2023-09-19T07:19:29;15.40;99.90
51908;DHT22;39320;53.214;6.556;2023-09-19T07:21:57;15.50;99.90
51908;DHT22;39320;53.214;6.556;2023-09-19T07:24:24;15.50;99.90
51908;DHT22;39320;53.214;6.556;2023-09-19T07:26:52;15.60;99.90
51908;DHT22;39320;53.214;6.556;2023-09-19T07:29:17;15.60;99.90
51908;DHT22;39320;53.214;6.556;2023-09-19T07:31:43;15.60;99.90
51908;DHT22;39320;53.214;6.556;2023-09-19T07:34:09;15.60;99.90
51908;DHT22;39320;53.214;6.556;2023-09-19T07:36:35;15.60;99.90
51908;DHT22;39320;53.214;6.556;2023-09-19T07:39:03;15.60;99.90
51908;DHT22;39320;53.214;6.556;2023-09-19T07:41:33;15.60;99.90
51908;DHT22;39320;53.214;6.556;2023-09-19T07:43:59;15.60;99.90
51908;DHT22;39320;53.214;6.556;2023-09-19T07:46:25;15.60;99.90
51908;DHT22;39320;53.214;6.556;2023-09-19T07:48:51;15.60;99.90
51908;DHT22;39320;53.214;6.556;2023-09-19T07:51:17;15.60;99.90
51908;DHT22;39320;53.214;6.556;2023-09-19T07:53:43;15.60;99.90
51908;DHT22;39320;53.214;6.556;2023-09-19T07:56:09;15.60;99.90
51908;DHT22;39320;53.214;6.556;2023-09-19T07:58:35;15.60;99.90
51908;DHT22;39320;53.214;6.556;2023-09-19T08:01:10;15.60;99.90
51908;DHT22;39320;53.214;6.556;2023-09-19T08:03:36;15.70;99.90
51908;DHT22;39320;53.214;6.556;2023-09-19T08:06:09;15.70;99.90
51908;DHT22;39320;53.214;6.556;2023-09-19T08:08:36;15.60;99.90
51908;DHT22;39320;53.214;6.556;2023-09-19T08:11:06;15.60;99.90
51908;DHT22;39320;53.214;6.556;2023-09-19T08:13:42;15.60;99.90
51908;DHT22;39320;53.214;6.556;2023-09-19T08:16:15;15.60;99.90
51908;DHT22;39320;53.214;6.556;2023-09-19T08:18:41;15.60;99.90
51908;DHT22;39320;53.214;6.556;2023-09-19T08:21:07;15.60;99.90
51908;DHT22;39320;53.214;6.556;2023-09-19T08:23:39;15.70;99.90
51908;DHT22;39320;53.214;6.556;2023-09-19T08:26:07;15.70;99.90
51908;DHT22;39320;53.214;6.556;2023-09-19T08:28:37;15.80;99.90
51908;DHT22;39320;53.214;6.556;2023-09-19T08:31:07;15.80;99.90
51908;DHT22;39320;53.214;6.556;2023-09-19T08:33:36;15.80;99.90
51908;DHT22;39320;53.214;6.556;2023-09-19T08:36:03;15.70;99.90
51908;DHT22;39320;53.214;6.556;2023-09-19T08:38:34;15.80;99.90
51908;DHT22;39320;53.214;6.556;2023-09-19T08:41:05;15.90;99.90
51908;DHT22;39320;53.214;6.556;2023-09-19T08:43:31;15.90;99.90
51908;DHT22;39320;53.214;6.556;2023-09-19T08:48:32;15.90;99.90
51908;DHT22;39320;53.214;6.556;2023-09-19T08:51:10;16.00;99.90
51908;DHT22;39320;53.214;6.556;2023-09-19T08:54:03;16.00;99.90
51908;DHT22;39320;53.214;6.556;2023-09-19T08:56:30;16.10;99.90
51908;DHT22;39320;53.214;6.556;2023-09-19T08:59:05;16.10;99.90
51908;DHT22;39320;53.214;6.556;2023-09-19T09:01:35;16.10;99.90
51908;DHT22;39320;53.214;6.556;2023-09-19T09:04:02;16.10;99.90
51908;DHT22;39320;53.214;6.556;2023-09-19T09:06:29;16.20;99.90
51908;DHT22;39320;53.214;6.556;2023-09-19T09:08:55;16.10;99.90
51908;DHT22;39320;53.214;6.556;2023-09-19T09:11:22;16.20;99.90
51908;DHT22;39320;53.214;6.556;2023-09-19T09:13:50;16.20;99.90
51908;DHT22;39320;53.214;6.556;2023-09-19T09:16:16;16.20;99.90
51908;DHT22;39320;53.214;6.556;2023-09-19T09:18:45;16.20;99.90
51908;DHT22;39320;53.214;6.556;2023-09-19T09:21:12;16.20;99.90
51908;DHT22;39320;53.214;6.556;2023-09-19T09:23:40;16.30;99.90
51908;DHT22;39320;53.214;6.556;2023-09-19T09:26:05;16.30;99.90
51908;DHT22;39320;53.214;6.556;2023-09-19T09:28:34;16.30;99.90
51908;DHT22;39320;53.214;6.556;2023-09-19T09:31:01;16.30;99.90
51908;DHT22;39320;53.214;6.556;2023-09-19T09:33:31;16.30;99.90
51908;DHT22;39320;53.214;6.556;2023-09-19T09:35:58;16.30;99.90
51908;DHT22;39320;53.214;6.556;2023-09-19T09:38:28;16.30;99.90
51908;DHT22;39320;53.214;6.556;2023-09-19T09:40:59;16.30;99.90
51908;DHT22;39320;53.214;6.556;2023-09-19T09:43:39;16.40;99.90
51908;DHT22;39320;53.214;6.556;2023-09-19T09:46:12;16.50;99.90
51908;DHT22;39320;53.214;6.556;2023-09-19T09:51:50;16.50;99.90
51908;DHT22;39320;53.214;6.556;2023-09-19T09:54:28;16.60;99.90
51908;DHT22;39320;53.214;6.556;2023-09-19T09:57:01;16.60;99.90
51908;DHT22;39320;53.214;6.556;2023-09-19T10:02:34;16.70;99.90
51908;DHT22;39320;53.214;6.556;2023-09-19T10:05:20;16.80;99.90
51908;DHT22;39320;53.214;6.556;2023-09-19T10:07:55;16.80;99.90
51908;DHT22;39320;53.214;6.556;2023-09-19T10:10:34;16.90;99.90
51908;DHT22;39320;53.214;6.556;2023-09-19T10:13:12;16.90;99.90
51908;DHT22;39320;53.214;6.556;2023-09-19T10:15:50;16.90;99.90
51908;DHT22;39320;53.214;6.556;2023-09-19T10:18:24;17.00;99.90
51908;DHT22;39320;53.214;6.556;2023-09-19T10:20:51;17.00;99.90
51908;DHT22;39320;53.214;6.556;2023-09-19T10:23:18;17.10;99.90
51908;DHT22;39320;53.214;6.556;2023-09-19T10:25:53;17.10;99.90
51908;DHT22;39320;53.214;6.556;2023-09-19T10:28:20;17.20;99.90
51908;DHT22;39320;53.214;6.556;2023-09-19T10:30:51;17.20;99.90
51908;DHT22;39320;53.214;6.556;2023-09-19T10:33:20;17.20;99.90
51908;DHT22;39320;53.214;6.556;2023-09-19T10:35:52;17.20;99.90
51908;DHT22;39320;53.214;6.556;2023-09-19T10:38:24;17.10;99.90
51908;DHT22;39320;53.214;6.556;2023-09-19T10:40:54;17.30;99.90
51908;DHT22;39320;53.214;6.556;2023-09-19T10:43:23;17.30;99.90
51908;DHT22;39320;53.214;6.556;2023-09-19T10:45:51;17.40;99.90
51908;DHT22;39320;53.214;6.556;2023-09-19T10:48:19;17.40;99.90
51908;DHT22;39320;53.214;6.556;2023-09-19T10:50:46;17.30;99.90
51908;DHT22;39320;53.214;6.556;2023-09-19T10:53:15;17.40;99.90
51908;DHT22;39320;53.214;6.556;2023-09-19T10:55:52;17.30;99.90
51908;DHT22;39320;53.214;6.556;2023-09-19T10:58:27;17.30;99.90
51908;DHT22;39320;53.214;6.556;2023-09-19T11:00:56;17.30;99.90
51908;DHT22;39320;53.214;6.556;2023-09-19T11:03:23;17.30;99.90
51908;DHT22;39320;53.214;6.556;2023-09-19T11:06:19;17.40;99.90
51908;DHT22;39320;53.214;6.556;2023-09-19T11:09:04;17.40;99.90
51908;DHT22;39320;53.214;6.556;2023-09-19T11:30:35;17.40;99.90
51908;DHT22;39320;53.214;6.556;2023-09-19T11:36:11;17.40;99.90
51908;DHT22;39320;53.214;6.556;2023-09-19T11:46:30;17.60;99.90
51908;DHT22;39320;53.214;6.556;2023-09-19T11:49:06;17.60;99.90
51908;DHT22;39320;53.214;6.556;2023-09-19T11:51:42;17.60;99.90
51908;DHT22;39320;53.214;6.556;2023-09-19T11:54:13;17.60;99.90
51908;DHT22;39320;53.214;6.556;2023-09-19T11:56:52;17.70;99.90
51908;DHT22;39320;53.214;6.556;2023-09-19T11:59:29;17.70;99.90
51908;DHT22;39320;53.214;6.556;2023-09-19T12:01:57;17.70;99.90
51908;DHT22;39320;53.214;6.556;2023-09-19T12:04:40;17.60;99.90
51908;DHT22;39320;53.214;6.556;2023-09-19T12:07:12;17.60;99.90
51908;DHT22;39320;53.214;6.556;2023-09-19T12:12:23;17.60;99.90
51908;DHT22;39320;53.214;6.556;2023-09-19T12:14:53;17.50;99.90
51908;DHT22;39320;53.214;6.556;2023-09-19T12:17:19;17.60;99.90
51908;DHT22;39320;53.214;6.556;2023-09-19T12:19:55;17.50;99.90
51908;DHT22;39320;53.214;6.556;2023-09-19T12:22:21;17.50;99.90
51908;DHT22;39320;53.214;6.556;2023-09-19T12:24:47;17.50;99.90
51908;DHT22;39320;53.214;6.556;2023-09-19T12:27:13;17.50;99.90
51908;DHT22;39320;53.214;6.556;2023-09-19T12:29:44;17.50;99.90
51908;DHT22;39320;53.214;6.556;2023-09-19T12:32:10;17.50;99.90
51908;DHT22;39320;53.214;6.556;2023-09-19T12:34:36;17.50;99.90
51908;DHT22;39320;53.214;6.556;2023-09-19T12:39:53;17.30;99.90
51908;DHT22;39320;53.214;6.556;2023-09-19T12:42:40;17.30;99.90
51908;DHT22;39320;53.214;6.556;2023-09-19T12:45:07;17.30;99.90
51908;DHT22;39320;53.214;6.556;2023-09-19T12:47:35;17.40;99.90
51908;DHT22;39320;53.214;6.556;2023-09-19T12:50:14;17.40;99.90
51908;DHT22;39320;53.214;6.556;2023-09-19T12:52:51;17.40;99.90
51908;DHT22;39320;53.214;6.556;2023-09-19T12:58:02;17.50;99.90
51908;DHT22;39320;53.214;6.556;2023-09-19T13:00:37;17.50;99.90
51908;DHT22;39320;53.214;6.556;2023-09-19T13:03:14;17.50;99.90
51908;DHT22;39320;53.214;6.556;2023-09-19T13:05:49;17.50;99.90
51908;DHT22;39320;53.214;6.556;2023-09-19T13:08:27;17.60;99.90
51908;DHT22;39320;53.214;6.556;2023-09-19T13:11:13;17.60;99.90
51908;DHT22;39320;53.214;6.556;2023-09-19T13:13:44;17.60;99.90
51908;DHT22;39320;53.214;6.556;2023-09-19T13:16:11;17.60;99.90
51908;DHT22;39320;53.214;6.556;2023-09-19T13:18:51;17.60;99.90
51908;DHT22;39320;53.214;6.556;2023-09-19T13:21:28;17.60;99.90
51908;DHT22;39320;53.214;6.556;2023-09-19T13:23:56;17.60;99.90
51908;DHT22;39320;53.214;6.556;2023-09-19T13:26:25;17.60;99.90
51908;DHT22;39320;53.214;6.556;2023-09-19T13:28:51;17.60;99.90
51908;DHT22;39320;53.214;6.556;2023-09-19T13:31:17;17.50;99.90
51908;DHT22;39320;53.214;6.556;2023-09-19T13:33:45;17.50;99.90
51908;DHT22;39320;53.214;6.556;2023-09-19T13:36:11;17.40;99.90
51908;DHT22;39320;53.214;6.556;2023-09-19T13:38:41;17.40;99.90
51908;DHT22;39320;53.214;6.556;2023-09-19T13:41:10;17.40;99.90
51908;DHT22;39320;53.214;6.556;2023-09-19T13:43:39;17.40;99.90
51908;DHT22;39320;53.214;6.556;2023-09-19T13:46:05;17.40;99.90
51908;DHT22;39320;53.214;6.556;2023-09-19T13:48:37;17.50;99.90
51908;DHT22;39320;53.214;6.556;2023-09-19T13:51:04;17.50;99.90
51908;DHT22;39320;53.214;6.556;2023-09-19T13:53:30;17.50;99.90
51908;DHT22;39320;53.214;6.556;2023-09-19T13:55:56;17.50;99.90
51908;DHT22;39320;53.214;6.556;2023-09-19T13:58:22;17.50;99.90
51908;DHT22;39320;53.214;6.556;2023-09-19T14:00:48;17.60;99.90
51908;DHT22;39320;53.214;6.556;2023-09-19T14:03:14;17.60;99.90
51908;DHT22;39320;53.214;6.556;2023-09-19T14:05:40;17.60;99.90
51908;DHT22;39320;53.214;6.556;2023-09-19T14:08:08;17.70;99.90
51908;DHT22;39320;53.214;6.556;2023-09-19T14:10:34;17.70;99.90
51908;DHT22;39320;53.214;6.556;2023-09-19T14:13:00;17.70;99.90
51908;DHT22;39320;53.214;6.556;2023-09-19T14:15:27;17.70;99.90
51908;DHT22;39320;53.214;6.556;2023-09-19T14:17:58;17.70;99.90
51908;DHT22;39320;53.214;6.556;2023-09-19T14:20:26;17.70;99.90
51908;DHT22;39320;53.214;6.556;2023-09-19T14:22:55;17.70;99.90
51908;DHT22;39320;53.214;6.556;2023-09-19T14:25:20;17.70;99.90
51908;DHT22;39320;53.214;6.556;2023-09-19T14:27:47;17.80;99.90
51908;DHT22;39320;53.214;6.556;2023-09-19T14:30:13;17.80;99.90
51908;DHT22;39320;53.214;6.556;2023-09-19T14:32:39;17.80;99.90
51908;DHT22;39320;53.214;6.556;2023-09-19T14:35:07;17.80;99.90
51908;DHT22;39320;53.214;6.556;2023-09-19T14:37:32;17.80;99.90
51908;DHT22;39320;53.214;6.556;2023-09-19T14:39:58;17.90;99.90
51908;DHT22;39320;53.214;6.556;2023-09-19T14:42:24;17.90;99.90
51908;DHT22;39320;53.214;6.556;2023-09-19T14:44:50;17.90;99.90
51908;DHT22;39320;53.214;6.556;2023-09-19T14:47:16;17.90;99.90
51908;DHT22;39320;53.214;6.556;2023-09-19T14:49:42;18.00;99.90
51908;DHT22;39320;53.214;6.556;2023-09-19T14:52:09;18.00;99.90
51908;DHT22;39320;53.214;6.556;2023-09-19T14:54:35;18.00;99.90
51908;DHT22;39320;53.214;6.556;2023-09-19T14:57:03;17.90;99.90
51908;DHT22;39320;53.214;6.556;2023-09-19T14:59:33;17.90;99.90
51908;DHT22;39320;53.214;6.556;2023-09-19T15:02:07;17.90;99.90
51908;DHT22;39320;53.214;6.556;2023-09-19T15:04:33;17.90;99.90
51908;DHT22;39320;53.214;6.556;2023-09-19T15:06:59;17.80;99.90
51908;DHT22;39320;53.214;6.556;2023-09-19T15:09:25;17.80;99.90
51908;DHT22;39320;53.214;6.556;2023-09-19T15:11:55;17.80;99.90
51908;DHT22;39320;53.214;6.556;2023-09-19T15:14:24;17.80;99.90
51908;DHT22;39320;53.214;6.556;2023-09-19T15:16:55;17.70;99.90
51908;DHT22;39320;53.214;6.556;2023-09-19T15:19:20;17.70;99.90
51908;DHT22;39320;53.214;6.556;2023-09-19T15:21:48;17.70;99.90
51908;DHT22;39320;53.214;6.556;2023-09-19T15:24:13;17.70;99.90
51908;DHT22;39320;53.214;6.556;2023-09-19T15:26:40;17.70;99.90
51908;DHT22;39320;53.214;6.556;2023-09-19T15:29:08;17.70;99.90
51908;DHT22;39320;53.214;6.556;2023-09-19T15:31:35;17.70;99.90
51908;DHT22;39320;53.214;6.556;2023-09-19T15:34:07;17.60;99.90
51908;DHT22;39320;53.214;6.556;2023-09-19T15:36:33;17.60;99.90
51908;DHT22;39320;53.214;6.556;2023-09-19T15:39:08;17.50;99.90
51908;DHT22;39320;53.214;6.556;2023-09-19T15:41:40;17.50;99.90
51908;DHT22;39320;53.214;6.556;2023-09-19T15:44:18;17.40;99.90
51908;DHT22;39320;53.214;6.556;2023-09-19T15:46:44;17.40;99.90
51908;DHT22;39320;53.214;6.556;2023-09-19T15:49:10;17.30;99.90
51908;DHT22;39320;53.214;6.556;2023-09-19T15:51:36;17.30;99.90
51908;DHT22;39320;53.214;6.556;2023-09-19T15:54:09;17.30;99.90
51908;DHT22;39320;53.214;6.556;2023-09-19T15:56:35;17.30;99.90
51908;DHT22;39320;53.214;6.556;2023-09-19T15:59:01;17.30;99.90
51908;DHT22;39320;53.214;6.556;2023-09-19T16:01:27;17.20;99.90
51908;DHT22;39320;53.214;6.556;2023-09-19T16:03:53;17.20;99.90
51908;DHT22;39320;53.214;6.556;2023-09-19T16:06:27;17.20;99.90
51908;DHT22;39320;53.214;6.556;2023-09-19T16:08:55;17.20;99.90
51908;DHT22;39320;53.214;6.556;2023-09-19T16:11:24;17.20;99.90
51908;DHT22;39320;53.214;6.556;2023-09-19T16:13:51;17.30;99.90
51908;DHT22;39320;53.214;6.556;2023-09-19T16:16:20;17.30;99.90
51908;DHT22;39320;53.214;6.556;2023-09-19T16:18:53;17.30;99.90
51908;DHT22;39320;53.214;6.556;2023-09-19T16:21:23;17.20;99.90
51908;DHT22;39320;53.214;6.556;2023-09-19T16:23:50;17.20;99.90
51908;DHT22;39320;53.214;6.556;2023-09-19T16:26:17;17.20;99.90
51908;DHT22;39320;53.214;6.556;2023-09-19T16:28:50;17.20;99.90
51908;DHT22;39320;53.214;6.556;2023-09-19T16:31:16;17.20;99.90
51908;DHT22;39320;53.214;6.556;2023-09-19T16:33:45;17.20;99.90
51908;DHT22;39320;53.214;6.556;2023-09-19T16:36:15;17.10;99.90
51908;DHT22;39320;53.214;6.556;2023-09-19T16:38:43;17.10;99.90
51908;DHT22;39320;53.214;6.556;2023-09-19T16:41:09;17.20;99.90